Time;durP1;ratioP1;P1;durP2;ratioP2;P2;SDS_P1;SDS_P2;PMS_P1;PMS_P2;Temp;Humidity;BMP_temperature;BMP_pressure;BME280_temperature;BME280_humidity;BME280_pressure;Samples;Min_cycle;Max_cycle;Signal;HPM_P1;HPM_P2
2023/06/20 00:01:47;;;;;;;10.50;8.55;;;18.00;99.90;;;;;;5048943;28;20249;-80
2023/06/20 00:04:14;;;;;;;9.77;7.50;;;17.70;99.90;;;;;;5055582;28;20203;-80
2023/06/20 00:06:41;;;;;;;9.88;8.43;;;18.00;99.90;;;;;;5054665;28;20597;-79
2023/06/20 00:09:08;;;;;;;9.95;8.95;;;18.20;99.90;;;;;;5054467;28;20851;-80
2023/06/20 00:11:34;;;;;;;12.98;9.02;;;18.30;99.90;;;;;;5049849;28;20215;-79
2023/06/20 00:14:02;;;;;;;12.68;8.38;;;18.30;99.90;;;;;;5054748;28;20202;-80
2023/06/20 00:16:29;;;;;;;11.15;8.48;;;18.20;99.90;;;;;;5054686;28;20575;-80
2023/06/20 00:18:56;;;;;;;10.63;9.07;;;18.20;99.90;;;;;;5048940;28;20207;-79
2023/06/20 00:21:25;;;;;;;10.93;8.75;;;18.40;99.90;;;;;;5052167;28;20631;-79
2023/06/20 00:23:52;;;;;;;10.00;9.00;;;18.40;99.90;;;;;;5054827;28;20229;-79
2023/06/20 00:26:19;;;;;;;9.90;8.70;;;18.50;99.90;;;;;;5043240;28;20211;-79
2023/06/20 00:28:46;;;;;;;13.70;9.15;;;18.40;99.90;;;;;;5034741;28;20231;-80
2023/06/20 00:31:14;;;;;;;12.35;8.65;;;18.30;99.90;;;;;;5034799;28;20238;-80
2023/06/20 00:33:41;;;;;;;16.88;8.65;;;18.00;99.90;;;;;;5035236;28;20207;-80
2023/06/20 00:36:09;;;;;;;12.55;8.77;;;18.10;99.90;;;;;;5036034;28;20723;-79
2023/06/20 00:38:35;;;;;;;10.25;8.18;;;18.00;99.90;;;;;;5039492;28;20197;-79
2023/06/20 00:41:02;;;;;;;11.20;8.13;;;18.10;99.90;;;;;;5055153;28;20227;-79
2023/06/20 00:43:29;;;;;;;9.90;8.88;;;18.10;99.90;;;;;;5035872;28;20247;-79
2023/06/20 00:45:56;;;;;;;11.13;8.75;;;18.40;99.90;;;;;;5033079;28;20203;-80
2023/06/20 00:48:24;;;;;;;9.63;8.45;;;18.40;99.90;;;;;;5035758;28;20206;-81
2023/06/20 00:50:53;;;;;;;23.60;9.18;;;18.30;99.90;;;;;;5034616;28;20754;-80
2023/06/20 00:53:20;;;;;;;14.60;8.93;;;18.20;99.90;;;;;;5053712;28;20207;-79
2023/06/20 00:55:48;;;;;;;18.48;9.05;;;17.30;99.90;;;;;;5050279;28;20221;-80
2023/06/20 00:58:14;;;;;;;15.38;9.18;;;17.40;99.90;;;;;;5047989;28;20290;-79
2023/06/20 01:00:41;;;;;;;17.13;9.93;;;17.60;99.90;;;;;;5042341;28;20219;-80
2023/06/20 01:03:12;;;;;;;13.38;10.45;;;17.90;99.90;;;;;;5053932;28;20223;-79
2023/06/20 01:05:41;;;;;;;19.77;9.60;;;18.20;99.90;;;;;;5045940;28;20268;-80
2023/06/20 01:08:15;;;;;;;18.30;9.80;;;17.90;99.90;;;;;;5053007;28;20209;-80
2023/06/20 01:10:53;;;;;;;21.55;10.02;;;17.40;99.90;;;;;;5038230;28;20310;-79
2023/06/20 01:13:28;;;;;;;19.75;10.43;;;17.30;99.90;;;;;;5053050;28;20203;-79
2023/06/20 01:16:04;;;;;;;13.60;9.45;;;17.10;99.90;;;;;;5034276;28;20207;-80
2023/06/20 01:18:44;;;;;;;18.10;10.13;;;17.40;99.90;;;;;;5034197;28;20214;-79
2023/06/20 01:21:18;;;;;;;18.42;10.68;;;17.50;99.90;;;;;;5049107;28;20221;-79
2023/06/20 01:23:52;;;;;;;14.90;10.07;;;17.70;99.90;;;;;;5053878;28;20225;-80
2023/06/20 01:26:26;;;;;;;18.60;9.82;;;17.60;99.90;;;;;;5053691;28;20666;-80
2023/06/20 01:28:59;;;;;;;20.90;9.30;;;17.70;99.90;;;;;;5053632;28;20689;-80
2023/06/20 01:31:31;;;;;;;26.80;10.73;;;17.60;99.90;;;;;;5044715;28;20220;-79
2023/06/20 01:34:01;;;;;;;18.65;10.15;;;17.50;99.90;;;;;;5033857;28;20227;-79
2023/06/20 01:36:33;;;;;;;25.98;10.13;;;17.40;99.90;;;;;;5045295;28;20199;-79
2023/06/20 01:39:06;;;;;;;16.60;9.90;;;17.50;99.90;;;;;;5046568;28;20196;-79
2023/06/20 01:41:37;;;;;;;16.48;9.90;;;17.50;99.90;;;;;;5045281;28;20219;-79
2023/06/20 01:44:06;;;;;;;15.50;9.32;;;17.30;99.90;;;;;;5042386;28;20215;-79
2023/06/20 01:46:34;;;;;;;10.40;9.18;;;17.50;99.90;;;;;;5049629;28;20222;-79
2023/06/20 01:49:02;;;;;;;13.38;9.77;;;17.40;99.90;;;;;;5056727;28;20194;-79
2023/06/20 01:51:31;;;;;;;14.60;9.65;;;17.40;99.90;;;;;;5042164;28;20683;-79
2023/06/20 01:53:59;;;;;;;14.18;9.48;;;17.60;99.90;;;;;;5050710;28;20206;-79
2023/06/20 01:56:28;;;;;;;12.82;9.20;;;17.80;99.90;;;;;;5036948;28;20286;-80
2023/06/20 01:58:55;;;;;;;13.75;9.25;;;17.90;99.90;;;;;;5037295;28;20214;-79
2023/06/20 02:01:24;;;;;;;11.15;10.00;;;18.00;99.90;;;;;;5056642;28;20229;-80
2023/06/20 02:03:53;;;;;;;12.60;9.85;;;18.00;99.90;;;;;;5055119;28;20245;-79
2023/06/20 02:06:22;;;;;;;14.80;10.45;;;18.10;99.90;;;;;;5051019;28;20209;-79
2023/06/20 02:08:51;;;;;;;10.88;9.63;;;18.00;99.90;;;;;;5056713;28;20195;-79
2023/06/20 02:11:20;;;;;;;16.08;10.85;;;18.00;99.90;;;;;;5056666;28;20222;-79
2023/06/20 02:13:50;;;;;;;16.70;11.00;;;18.00;99.90;;;;;;5044678;28;20200;-79
2023/06/20 02:16:18;;;;;;;14.63;10.20;;;17.70;99.90;;;;;;5041515;28;20223;-80
2023/06/20 02:18:45;;;;;;;16.83;10.98;;;17.70;99.90;;;;;;5056655;28;20198;-80
2023/06/20 02:21:18;;;;;;;14.27;11.32;;;17.90;99.90;;;;;;5057362;28;20226;-80
2023/06/20 02:23:48;;;;;;;12.55;10.93;;;17.90;99.90;;;;;;5050624;28;20314;-80
2023/06/20 02:26:18;;;;;;;14.95;11.25;;;17.90;99.90;;;;;;5043168;28;20700;-80
2023/06/20 02:28:49;;;;;;;19.08;11.90;;;18.10;99.90;;;;;;5053949;28;20245;-79
2023/06/20 02:31:18;;;;;;;18.73;12.32;;;18.10;99.90;;;;;;5052157;28;20225;-79
2023/06/20 02:33:47;;;;;;;15.10;11.77;;;18.00;99.90;;;;;;5050837;28;20199;-79
2023/06/20 02:36:15;;;;;;;14.27;12.02;;;18.00;99.90;;;;;;5052067;28;20195;-80
2023/06/20 02:38:42;;;;;;;14.50;10.98;;;17.90;99.90;;;;;;5035936;28;20207;-79
2023/06/20 02:41:09;;;;;;;17.83;11.93;;;18.00;99.90;;;;;;5036255;28;20314;-79
2023/06/20 02:43:36;;;;;;;14.23;10.80;;;18.00;99.90;;;;;;5037985;28;20314;-81
2023/06/20 02:46:12;;;;;;;12.50;10.57;;;18.10;99.90;;;;;;5041020;28;20223;-80
2023/06/20 02:48:46;;;;;;;15.38;10.93;;;18.10;99.90;;;;;;5059634;28;20203;-80
2023/06/20 02:51:18;;;;;;;12.85;10.93;;;18.20;99.90;;;;;;5047929;28;20223;-80
2023/06/20 02:53:56;;;;;;;13.57;11.25;;;18.20;99.90;;;;;;5042083;28;20212;-82
2023/06/20 02:56:24;;;;;;;13.63;11.27;;;18.10;99.90;;;;;;5042136;28;20257;-79
2023/06/20 02:58:53;;;;;;;14.13;11.43;;;18.20;99.90;;;;;;5057902;28;20199;-80
2023/06/20 03:01:24;;;;;;;13.63;12.00;;;18.20;99.90;;;;;;5051560;28;20223;-79
2023/06/20 03:03:54;;;;;;;16.75;12.77;;;18.10;99.90;;;;;;5043642;28;20224;-80
2023/06/20 03:06:26;;;;;;;14.63;12.55;;;18.00;99.90;;;;;;5061375;28;20241;-80
2023/06/20 03:08:55;;;;;;;16.33;12.82;;;17.90;99.90;;;;;;5054691;28;20250;-81
2023/06/20 03:11:23;;;;;;;14.15;12.43;;;17.90;99.90;;;;;;5042549;28;20289;-80
2023/06/20 03:13:50;;;;;;;18.95;12.68;;;18.10;99.90;;;;;;5043036;28;20750;-81
2023/06/20 03:16:17;;;;;;;17.42;13.38;;;18.10;99.90;;;;;;5043517;28;20195;-80
2023/06/20 03:18:47;;;;;;;15.18;12.88;;;18.10;99.90;;;;;;5060173;28;20203;-81
2023/06/20 03:21:14;;;;;;;16.38;12.93;;;18.10;99.90;;;;;;5059394;28;20230;-79
2023/06/20 03:23:41;;;;;;;14.57;12.95;;;18.00;99.90;;;;;;5061852;28;20221;-78
2023/06/20 03:26:07;;;;;;;14.45;12.40;;;18.00;99.90;;;;;;5078955;28;20297;-81
2023/06/20 03:28:34;;;;;;;15.50;12.60;;;18.00;99.90;;;;;;5079145;28;20278;-81
2023/06/20 03:31:01;;;;;;;16.45;12.55;;;18.00;99.90;;;;;;5079299;28;20222;-79
2023/06/20 03:33:28;;;;;;;17.27;13.10;;;18.00;99.90;;;;;;5079125;28;20238;-80
2023/06/20 03:35:56;;;;;;;17.55;12.82;;;18.20;99.90;;;;;;5078505;28;20677;-79
2023/06/20 03:38:23;;;;;;;16.08;12.25;;;18.30;99.90;;;;;;5078773;28;20206;-80
2023/06/20 03:40:51;;;;;;;17.58;13.20;;;18.50;99.90;;;;;;5078333;28;20228;-81
2023/06/20 03:43:18;;;;;;;14.88;11.40;;;18.50;99.90;;;;;;5078295;28;20268;-80
2023/06/20 03:45:45;;;;;;;17.27;11.80;;;18.50;99.90;;;;;;5077988;28;20580;-79
2023/06/20 03:48:12;;;;;;;13.40;11.32;;;18.60;99.90;;;;;;5079047;28;20228;-79
2023/06/20 03:50:38;;;;;;;14.50;11.35;;;18.70;99.90;;;;;;5078715;28;20312;-79
2023/06/20 03:53:07;;;;;;;15.55;12.07;;;18.80;99.90;;;;;;5079640;28;20216;-80
2023/06/20 03:55:33;;;;;;;15.35;11.40;;;18.80;99.90;;;;;;5079620;28;20749;-79
2023/06/20 03:58:00;;;;;;;18.08;13.05;;;18.90;99.90;;;;;;5078828;28;20198;-79
2023/06/20 04:00:27;;;;;;;16.70;11.32;;;18.80;99.90;;;;;;5079328;28;20235;-79
2023/06/20 04:02:54;;;;;;;21.75;12.27;;;18.90;99.90;;;;;;5078647;28;20270;-79
2023/06/20 04:05:22;;;;;;;15.38;11.70;;;19.00;99.90;;;;;;5078486;28;20204;-80
2023/06/20 04:07:48;;;;;;;16.48;12.40;;;19.00;99.90;;;;;;5078525;28;20237;-80
2023/06/20 04:10:17;;;;;;;16.88;12.13;;;18.90;99.90;;;;;;5078197;28;20222;-80
2023/06/20 04:12:44;;;;;;;17.95;11.95;;;18.80;99.90;;;;;;5077912;28;20206;-79
2023/06/20 04:15:11;;;;;;;15.35;11.82;;;18.80;99.90;;;;;;5077525;28;20198;-79
2023/06/20 04:17:40;;;;;;;13.73;11.15;;;18.80;99.90;;;;;;5076817;28;20198;-79
2023/06/20 04:20:12;;;;;;;15.60;11.40;;;18.80;99.90;;;;;;5078078;28;20789;-79
2023/06/20 04:22:42;;;;;;;13.43;10.77;;;18.80;99.90;;;;;;5077659;28;20202;-79
2023/06/20 04:25:09;;;;;;;15.63;12.70;;;18.80;99.90;;;;;;5076483;28;20257;-79
2023/06/20 04:27:37;;;;;;;15.48;11.85;;;18.80;99.90;;;;;;5074157;28;20674;-78
2023/06/20 04:30:06;;;;;;;16.60;12.02;;;18.90;99.90;;;;;;5072667;28;20225;-78
2023/06/20 04:32:32;;;;;;;17.55;13.05;;;18.90;99.90;;;;;;5072734;28;20202;-78
2023/06/20 04:34:59;;;;;;;17.20;12.63;;;18.90;99.90;;;;;;5073072;28;20555;-79
2023/06/20 04:37:29;;;;;;;17.85;12.73;;;18.90;99.90;;;;;;5077043;28;20228;-83
2023/06/20 04:39:56;;;;;;;17.67;13.07;;;19.00;99.90;;;;;;5078352;28;20222;-82
2023/06/20 04:42:23;;;;;;;17.45;12.73;;;19.00;99.90;;;;;;5078028;28;20206;-82
2023/06/20 04:44:51;;;;;;;16.77;12.85;;;19.00;99.90;;;;;;5077135;28;20359;-83
2023/06/20 04:47:18;;;;;;;17.35;12.50;;;19.00;99.90;;;;;;5077670;28;20228;-83
2023/06/20 04:49:46;;;;;;;19.83;13.63;;;19.10;99.90;;;;;;5076839;28;20292;-83
2023/06/20 04:52:12;;;;;;;16.45;12.75;;;19.10;99.90;;;;;;5077567;28;20242;-81
2023/06/20 04:54:39;;;;;;;16.42;12.45;;;19.20;99.90;;;;;;5078918;28;20242;-82
2023/06/20 04:57:06;;;;;;;17.27;12.90;;;19.20;99.90;;;;;;5058914;28;20210;-80
2023/06/20 04:59:35;;;;;;;18.15;12.95;;;19.30;99.90;;;;;;5056022;28;20213;-82
2023/06/20 05:02:05;;;;;;;16.95;13.43;;;19.30;99.90;;;;;;5055319;28;20206;-78
2023/06/20 05:04:32;;;;;;;17.83;13.50;;;19.30;99.90;;;;;;5055325;28;20219;-82
2023/06/20 05:07:00;;;;;;;17.75;13.05;;;19.30;99.90;;;;;;5056004;28;20663;-81
2023/06/20 05:09:27;;;;;;;15.93;12.98;;;19.40;99.90;;;;;;5056205;28;20230;-82
2023/06/20 05:11:54;;;;;;;19.15;13.50;;;19.50;99.90;;;;;;5055483;28;20214;-83
2023/06/20 05:14:21;;;;;;;16.08;13.05;;;19.50;99.90;;;;;;5056577;28;20202;-82
2023/06/20 05:16:48;;;;;;;17.90;13.05;;;19.40;99.90;;;;;;5059732;28;20207;-82
2023/06/20 05:19:16;;;;;;;17.17;13.00;;;19.40;99.90;;;;;;5059672;28;20203;-82
2023/06/20 05:21:42;;;;;;;18.05;13.45;;;19.40;99.90;;;;;;5059670;28;20823;-82
2023/06/20 05:24:09;;;;;;;19.00;14.00;;;19.40;99.90;;;;;;5059775;28;20245;-81
2023/06/20 05:26:36;;;;;;;18.10;13.95;;;19.40;99.90;;;;;;5059486;28;20207;-83
2023/06/20 05:29:03;;;;;;;17.38;13.38;;;19.40;99.90;;;;;;5059784;28;20204;-81
2023/06/20 05:31:30;;;;;;;17.08;13.65;;;19.40;99.90;;;;;;5059629;28;20222;-81
2023/06/20 05:33:57;;;;;;;18.65;13.63;;;19.30;99.90;;;;;;5059476;28;20203;-82
2023/06/20 05:36:25;;;;;;;17.02;13.82;;;19.30;99.90;;;;;;5059107;28;20203;-78
2023/06/20 05:38:51;;;;;;;16.30;13.20;;;19.20;99.90;;;;;;5059088;28;20203;-78
2023/06/20 05:41:18;;;;;;;15.48;12.50;;;19.40;99.90;;;;;;5058896;28;20314;-82
2023/06/20 05:43:45;;;;;;;17.63;12.93;;;19.50;99.90;;;;;;5059229;28;20225;-83
2023/06/20 05:46:12;;;;;;;16.40;11.90;;;19.50;99.90;;;;;;5059155;28;20205;-79
2023/06/20 05:48:40;;;;;;;14.27;11.57;;;19.60;99.90;;;;;;5059034;28;20297;-82
2023/06/20 05:51:07;;;;;;;16.17;12.05;;;19.60;99.90;;;;;;5059152;28;20785;-82
2023/06/20 05:53:35;;;;;;;16.77;12.35;;;19.70;99.90;;;;;;5058624;28;20219;-80
2023/06/20 05:56:02;;;;;;;16.13;12.52;;;19.60;99.90;;;;;;5058930;28;20206;-81
2023/06/20 05:58:29;;;;;;;18.42;12.40;;;19.60;99.90;;;;;;5058105;28;20203;-79
2023/06/20 06:00:56;;;;;;;16.67;12.77;;;19.50;99.90;;;;;;5051183;28;20221;-79
2023/06/20 06:03:23;;;;;;;19.10;12.98;;;19.60;99.90;;;;;;5045821;28;20209;-78
2023/06/20 06:05:49;;;;;;;15.02;12.43;;;19.50;99.90;;;;;;5050696;28;20201;-79
2023/06/20 06:08:17;;;;;;;18.48;11.95;;;19.50;99.90;;;;;;5055935;28;20272;-78
2023/06/20 06:10:45;;;;;;;16.90;12.85;;;19.50;99.90;;;;;;5055370;28;20630;-78
2023/06/20 06:13:12;;;;;;;17.27;14.25;;;19.60;99.90;;;;;;5055710;28;20222;-79
2023/06/20 06:15:39;;;;;;;18.27;13.43;;;19.60;99.90;;;;;;5055075;28;20202;-77
2023/06/20 06:18:08;;;;;;;18.92;13.60;;;19.50;99.90;;;;;;5042141;28;20294;-77
2023/06/20 06:20:35;;;;;;;17.77;13.43;;;19.50;99.90;;;;;;5034910;28;20231;-77
2023/06/20 06:23:03;;;;;;;18.02;14.40;;;19.60;99.90;;;;;;5034895;28;20294;-78
2023/06/20 06:25:29;;;;;;;18.52;13.68;;;19.60;99.90;;;;;;5041314;28;20306;-78
2023/06/20 06:27:58;;;;;;;16.80;13.55;;;19.60;99.90;;;;;;5054665;28;20199;-79
2023/06/20 06:30:25;;;;;;;15.43;12.75;;;19.70;99.90;;;;;;5054672;28;20659;-78
2023/06/20 06:32:52;;;;;;;17.35;12.55;;;19.70;99.90;;;;;;5054947;28;20207;-78
2023/06/20 06:35:19;;;;;;;16.55;12.85;;;19.80;99.90;;;;;;5054514;28;20206;-79
2023/06/20 06:37:47;;;;;;;17.80;13.07;;;19.80;99.90;;;;;;5054344;28;20205;-79
2023/06/20 06:40:14;;;;;;;14.25;11.25;;;19.90;99.90;;;;;;5054759;28;20222;-79
2023/06/20 06:42:41;;;;;;;14.70;11.43;;;19.90;99.90;;;;;;5045616;28;20216;-79
2023/06/20 06:45:10;;;;;;;17.08;11.35;;;20.00;99.90;;;;;;5034951;28;20224;-79
2023/06/20 06:47:37;;;;;;;13.63;9.77;;;20.00;99.90;;;;;;5034820;28;20695;-78
2023/06/20 06:50:06;;;;;;;11.85;10.02;;;20.00;99.90;;;;;;5034729;28;20224;-78
2023/06/20 06:52:34;;;;;;;10.05;8.65;;;20.00;99.90;;;;;;5034495;28;20214;-79
2023/06/20 06:55:01;;;;;;;10.20;9.13;;;20.00;99.90;;;;;;5040703;28;20205;-78
2023/06/20 06:57:28;;;;;;;11.10;9.30;;;20.10;99.90;;;;;;5054454;28;20291;-78
2023/06/20 06:59:54;;;;;;;9.68;8.40;;;20.10;99.90;;;;;;5055414;28;20237;-78
2023/06/20 07:02:23;;;;;;;9.85;8.85;;;20.20;99.90;;;;;;5054559;28;20242;-78
2023/06/20 07:04:49;;;;;;;10.90;9.25;;;20.10;99.90;;;;;;5050849;28;20219;-78
2023/06/20 07:07:16;;;;;;;10.63;8.70;;;20.20;99.90;;;;;;5033755;28;20204;-78
2023/06/20 07:09:43;;;;;;;10.98;9.70;;;20.30;99.90;;;;;;5036481;28;20700;-77
2023/06/20 07:12:10;;;;;;;11.88;9.05;;;20.20;99.90;;;;;;5050388;28;20217;-79
2023/06/20 07:14:37;;;;;;;13.15;9.60;;;20.30;99.90;;;;;;5055647;28;20195;-79
2023/06/20 07:17:04;;;;;;;13.05;9.32;;;20.30;99.90;;;;;;5050334;28;20234;-79
2023/06/20 07:19:32;;;;;;;13.52;9.32;;;20.20;99.90;;;;;;5053966;28;20195;-79
2023/06/20 07:21:59;;;;;;;10.65;9.38;;;20.20;99.90;;;;;;5054559;28;20260;-77
2023/06/20 07:24:26;;;;;;;11.15;9.82;;;20.40;99.90;;;;;;5050609;28;20589;-78
2023/06/20 07:26:52;;;;;;;11.60;9.82;;;20.50;99.90;;;;;;5033557;28;20204;-78
2023/06/20 07:29:19;;;;;;;11.23;8.57;;;20.60;99.90;;;;;;5034014;28;20566;-78
2023/06/20 07:31:46;;;;;;;11.25;9.35;;;20.80;99.90;;;;;;5034125;28;20311;-79
2023/06/20 07:34:13;;;;;;;13.55;9.35;;;20.90;99.90;;;;;;5034738;28;20234;-79
2023/06/20 07:36:41;;;;;;;10.75;9.35;;;20.90;99.90;;;;;;5049357;28;20210;-79
2023/06/20 07:39:08;;;;;;;9.05;8.07;;;20.90;99.90;;;;;;5053395;28;20693;-77
2023/06/20 07:41:35;;;;;;;11.98;8.20;;;20.80;99.90;;;;;;5037721;28;20719;-77
2023/06/20 07:44:04;;;;;;;9.23;7.85;;;20.80;99.90;;;;;;5033276;28;20569;-78
2023/06/20 07:46:31;;;;;;;10.18;7.82;;;20.80;99.90;;;;;;5032960;28;20746;-78
2023/06/20 07:48:58;;;;;;;8.65;7.75;;;20.90;99.90;;;;;;5051921;28;20214;-78
2023/06/20 07:51:24;;;;;;;8.80;8.00;;;20.80;99.90;;;;;;5052762;28;20392;-78
2023/06/20 07:53:53;;;;;;;10.45;7.30;;;20.80;99.90;;;;;;5036970;28;20595;-77
2023/06/20 07:56:19;;;;;;;8.80;7.35;;;20.80;99.90;;;;;;5032738;28;20566;-78
2023/06/20 07:58:47;;;;;;;9.27;7.90;;;21.00;99.90;;;;;;5039209;28;20305;-77
2023/06/20 08:01:14;;;;;;;8.95;7.28;;;21.10;99.90;;;;;;5052549;28;20237;-79
2023/06/20 08:03:41;;;;;;;7.38;6.68;;;21.30;99.90;;;;;;5046685;28;20664;-78
2023/06/20 08:06:07;;;;;;;7.00;6.30;;;21.20;99.90;;;;;;5032354;28;20223;-78
2023/06/20 08:08:34;;;;;;;7.55;6.55;;;21.40;99.90;;;;;;5033185;28;20203;-79
2023/06/20 08:11:03;;;;;;;7.45;6.65;;;21.60;99.90;;;;;;5045749;28;20223;-79
2023/06/20 08:13:30;;;;;;;8.02;6.57;;;21.80;99.90;;;;;;5053689;28;20725;-78
2023/06/20 08:15:57;;;;;;;7.35;6.65;;;21.60;99.90;;;;;;5052024;28;20210;-78
2023/06/20 08:18:24;;;;;;;8.35;7.28;;;21.60;99.90;;;;;;5052672;28;20218;-79
2023/06/20 08:20:50;;;;;;;7.40;6.68;;;21.60;99.90;;;;;;5052807;28;20223;-77
2023/06/20 08:23:24;;;;;;;7.80;6.78;;;21.50;99.90;;;;;;5052410;28;20270;-80
2023/06/20 08:25:51;;;;;;;8.20;7.28;;;21.60;99.90;;;;;;5037413;28;20226;-78
2023/06/20 08:28:22;;;;;;;8.70;7.15;;;21.70;99.90;;;;;;5047005;28;20245;-78
2023/06/20 08:30:49;;;;;;;11.23;7.03;;;21.80;99.90;;;;;;5052107;28;20598;-79
2023/06/20 08:33:16;;;;;;;8.82;6.75;;;21.50;99.90;;;;;;5052434;28;20202;-79
2023/06/20 08:35:43;;;;;;;7.75;6.95;;;21.60;99.90;;;;;;5041556;28;20207;-80
2023/06/20 08:38:10;;;;;;;7.65;6.60;;;21.50;99.90;;;;;;5032275;28;20207;-78
2023/06/20 08:40:37;;;;;;;8.05;7.10;;;21.30;99.90;;;;;;5041877;28;20227;-79
2023/06/20 08:43:04;;;;;;;8.40;7.00;;;21.40;99.90;;;;;;5047215;28;20201;-78
2023/06/20 08:45:32;;;;;;;9.38;7.65;;;21.30;99.90;;;;;;5048532;28;20614;-79
2023/06/20 08:47:59;;;;;;;10.07;7.72;;;21.30;99.90;;;;;;5047875;28;20305;-79
2023/06/20 08:50:26;;;;;;;9.43;8.02;;;21.30;99.90;;;;;;5043668;28;20228;-79
2023/06/20 08:52:54;;;;;;;10.38;8.80;;;21.40;99.90;;;;;;5032388;28;20226;-79
2023/06/20 08:55:22;;;;;;;11.10;8.75;;;21.40;99.90;;;;;;5038893;28;20207;-77
2023/06/20 08:57:51;;;;;;;9.07;8.18;;;21.50;99.90;;;;;;5051736;28;20194;-78
2023/06/20 09:00:20;;;;;;;12.00;8.98;;;21.60;99.90;;;;;;5051721;28;20226;-78
2023/06/20 09:02:48;;;;;;;9.95;8.85;;;21.70;99.90;;;;;;5046510;28;20205;-77
2023/06/20 09:05:15;;;;;;;12.52;9.65;;;21.80;99.90;;;;;;5042861;28;20317;-77
2023/06/20 09:07:43;;;;;;;10.82;9.05;;;21.90;99.90;;;;;;5046259;28;20209;-78
2023/06/20 09:10:11;;;;;;;12.15;9.32;;;22.10;99.90;;;;;;5050924;28;20566;-78
2023/06/20 09:12:46;;;;;;;10.45;8.70;;;22.20;99.90;;;;;;5051576;28;20206;-78
2023/06/20 09:15:14;;;;;;;10.90;8.73;;;22.30;99.90;;;;;;5051624;28;20198;-78
2023/06/20 09:17:42;;;;;;;10.48;8.80;;;22.30;99.90;;;;;;5051556;28;20252;-78
2023/06/20 09:20:11;;;;;;;10.63;9.00;;;22.40;99.90;;;;;;5051743;28;20756;-78
2023/06/20 09:22:39;;;;;;;12.32;9.82;;;22.50;99.90;;;;;;5055001;28;20207;-79
2023/06/20 09:25:07;;;;;;;11.30;9.13;;;22.50;99.90;;;;;;5059019;28;20218;-79
2023/06/20 09:27:35;;;;;;;11.20;9.48;;;22.50;99.90;;;;;;5059311;28;20203;-79
2023/06/20 09:30:03;;;;;;;10.40;9.30;;;22.60;99.90;;;;;;5059326;28;20288;-78
2023/06/20 09:32:34;;;;;;;12.90;9.25;;;22.70;99.90;;;;;;5059297;28;20302;-79
2023/06/20 09:35:03;;;;;;;11.18;9.48;;;23.00;99.90;;;;;;5058803;28;20202;-79
2023/06/20 09:37:40;;;;;;;10.93;8.73;;;23.60;99.90;;;;;;5059334;28;20205;-79
2023/06/20 09:40:09;;;;;;;11.50;9.57;;;23.70;99.90;;;;;;5058889;28;20222;-79
2023/06/20 09:42:37;;;;;;;10.38;9.27;;;23.80;99.90;;;;;;5059480;28;20203;-80
2023/06/20 09:45:04;;;;;;;8.73;7.82;;;23.70;99.90;;;;;;5058866;28;20215;-79
2023/06/20 09:47:32;;;;;;;9.65;7.85;;;23.80;99.90;;;;;;5058143;28;20568;-80
2023/06/20 09:49:59;;;;;;;9.63;7.40;;;23.70;99.90;;;;;;5058162;28;20721;-80
2023/06/20 09:52:32;;;;;;;8.85;7.60;;;23.60;99.90;;;;;;5058191;28;20211;-80
2023/06/20 09:55:01;;;;;;;9.07;8.05;;;23.90;99.90;;;;;;5057955;28;20293;-79
2023/06/20 09:57:34;;;;;;;7.80;7.00;;;23.80;99.90;;;;;;5056067;28;20297;-79
2023/06/20 10:00:02;;;;;;;8.57;7.68;;;24.00;99.90;;;;;;5060094;28;20235;-79
2023/06/20 10:02:31;;;;;;;8.68;7.20;;;24.00;99.90;;;;;;5061631;28;20207;-79
2023/06/20 10:04:59;;;;;;;9.18;7.97;;;24.30;99.90;;;;;;5061941;28;20223;-79
2023/06/20 10:07:26;;;;;;;8.00;7.18;;;24.40;99.90;;;;;;5061649;28;20211;-79
2023/06/20 10:09:56;;;;;;;8.43;7.55;;;24.50;99.90;;;;;;5062323;28;20203;-79
2023/06/20 10:12:25;;;;;;;8.48;7.57;;;24.80;99.90;;;;;;5061505;28;20294;-79
2023/06/20 10:14:54;;;;;;;10.00;8.05;;;24.50;99.90;;;;;;5063427;28;20203;-79
2023/06/20 10:17:31;;;;;;;9.18;8.25;;;24.30;99.90;;;;;;5062950;28;20559;-79
2023/06/20 10:19:59;;;;;;;10.55;8.60;;;24.10;99.90;;;;;;5062439;28;20268;-79
2023/06/20 10:22:37;;;;;;;8.38;7.57;;;24.30;99.90;;;;;;5062819;28;20207;-79
2023/06/20 10:25:15;;;;;;;8.57;7.75;;;24.50;99.90;;;;;;5062063;28;20222;-79
2023/06/20 10:27:45;;;;;;;7.80;7.00;;;25.00;99.90;;;;;;5062711;28;20262;-80
2023/06/20 10:30:13;;;;;;;8.30;7.50;;;25.40;99.90;;;;;;5061626;28;20219;-79
2023/06/20 10:33:08;;;;;;;7.55;6.85;;;26.00;99.90;;;;;;5060743;28;20199;-80
2023/06/20 10:35:35;;;;;;;8.00;7.25;;;26.10;99.90;;;;;;5062957;28;20206;-79
2023/06/20 10:38:09;;;;;;;8.23;7.28;;;25.90;99.90;;;;;;5061098;28;20209;-78
2023/06/20 10:40:37;;;;;;;7.25;6.55;;;26.10;99.90;;;;;;5060794;28;20695;-79
2023/06/20 10:43:09;;;;;;;7.90;7.00;;;26.50;99.90;;;;;;5060765;28;20748;-79
2023/06/20 10:45:36;;;;;;;8.20;6.50;;;26.90;99.90;;;;;;5058594;28;20229;-83
2023/06/20 10:48:03;;;;;;;6.95;6.22;;;27.70;99.90;;;;;;5057803;28;20658;-79
2023/06/20 10:50:30;;;;;;;7.70;6.90;;;28.10;99.90;;;;;;5057437;28;20313;-79
2023/06/20 10:53:01;;;;;;;8.25;7.40;;;26.70;99.90;;;;;;5055363;28;20251;-80
2023/06/20 10:55:29;;;;;;;7.80;6.60;;;26.40;99.90;;;;;;5052596;28;20199;-81
2023/06/20 10:57:56;;;;;;;7.57;6.88;;;26.20;99.90;;;;;;5061376;28;20195;-81
2023/06/20 11:00:25;;;;;;;8.02;7.25;;;25.90;99.90;;;;;;5051883;28;20219;-81
2023/06/20 11:02:53;;;;;;;7.55;6.82;;;25.60;99.90;;;;;;5056746;28;20203;-82
2023/06/20 11:05:24;;;;;;;7.68;6.45;;;25.60;99.90;;;;;;5056093;28;20219;-80
2023/06/20 11:07:54;;;;;;;7.22;6.47;;;26.30;99.90;;;;;;5054605;28;20205;-82
2023/06/20 11:10:21;;;;;;;7.85;7.15;;;26.90;99.90;;;;;;5053435;28;20239;-80
2023/06/20 11:12:48;;;;;;;8.05;7.25;;;26.40;99.90;;;;;;5056127;28;20195;-79
2023/06/20 11:15:28;;;;;;;7.30;6.60;;;26.60;99.90;;;;;;5056965;28;20215;-81
2023/06/20 11:17:55;;;;;;;7.63;6.93;;;26.80;99.90;;;;;;5056606;28;20199;-79
2023/06/20 11:20:24;;;;;;;6.88;6.20;;;26.90;99.90;;;;;;5056829;28;20238;-79
2023/06/20 11:22:53;;;;;;;9.40;7.03;;;27.50;99.90;;;;;;5046068;28;20254;-79
2023/06/20 11:25:27;;;;;;;8.05;7.25;;;27.20;99.90;;;;;;5047029;28;20210;-81
2023/06/20 11:27:55;;;;;;;7.03;6.32;;;26.80;99.90;;;;;;5056903;28;20316;-79
2023/06/20 11:30:27;;;;;;;8.15;7.00;;;27.00;99.90;;;;;;5036744;28;20594;-79
2023/06/20 11:33:02;;;;;;;6.32;5.72;;;27.20;99.90;;;;;;5036222;28;20207;-82
2023/06/20 11:35:42;;;;;;;6.25;5.65;;;27.30;99.90;;;;;;5035999;28;20199;-82
2023/06/20 11:38:10;;;;;;;6.28;5.68;;;27.50;99.90;;;;;;5034487;28;20207;-80
2023/06/20 11:40:38;;;;;;;6.95;6.25;;;27.80;99.90;;;;;;5033415;28;20359;-80
2023/06/20 11:43:05;;;;;;;6.10;5.50;;;28.30;99.90;;;;;;5035302;28;20712;-80
2023/06/20 11:45:33;;;;;;;5.82;5.32;;;28.40;99.90;;;;;;5042832;28;20215;-82
2023/06/20 11:48:10;;;;;;;5.65;5.10;;;29.10;99.90;;;;;;5058004;28;20201;-80
2023/06/20 11:50:37;;;;;;;6.43;5.43;;;28.00;99.90;;;;;;5056019;28;20215;-80
2023/06/20 11:53:05;;;;;;;5.65;5.25;;;27.80;99.90;;;;;;5059821;28;20289;-80
2023/06/20 11:55:48;;;;;;;6.95;6.30;;;27.50;99.90;;;;;;5058437;28;20231;-78
2023/06/20 11:58:15;;;;;;;5.70;5.22;;;28.10;99.90;;;;;;5053450;28;20203;-79
2023/06/20 12:00:47;;;;;;;6.00;5.38;;;28.60;99.90;;;;;;5053457;28;20225;-78
2023/06/20 12:03:16;;;;;;;7.47;6.78;;;28.30;99.90;;;;;;5052132;28;20253;-78
2023/06/20 12:05:44;;;;;;;8.63;6.63;;;27.50;99.90;;;;;;5033113;28;20219;-79
2023/06/20 12:08:13;;;;;;;7.20;6.35;;;27.70;99.90;;;;;;5033073;28;20578;-78
2023/06/20 12:10:41;;;;;;;6.97;6.35;;;28.10;99.90;;;;;;5032880;28;20272;-78
2023/06/20 12:13:07;;;;;;;5.95;4.93;;;27.90;99.90;;;;;;5033052;28;20208;-78
2023/06/20 12:15:34;;;;;;;6.03;5.43;;;27.70;99.90;;;;;;5032878;28;20204;-78
2023/06/20 12:18:03;;;;;;;6.68;6.10;;;28.00;99.90;;;;;;5032656;28;20247;-79
2023/06/20 12:20:31;;;;;;;5.90;5.40;;;27.60;99.90;;;;;;5032942;28;20778;-80
2023/06/20 12:22:58;;;;;;;6.50;5.90;;;28.20;99.90;;;;;;5043254;28;20280;-79
2023/06/20 12:25:25;;;;;;;6.05;5.43;;;27.60;99.90;;;;;;5045565;28;20660;-78
2023/06/20 12:27:52;;;;;;;8.18;6.60;;;27.40;99.90;;;;;;5032371;28;20601;-78
2023/06/20 12:30:19;;;;;;;7.20;6.43;;;27.90;99.90;;;;;;5032354;28;20227;-79
2023/06/20 12:32:46;;;;;;;6.00;5.50;;;27.80;99.90;;;;;;5038503;28;20609;-79
2023/06/20 12:35:14;;;;;;;7.97;6.18;;;27.60;99.90;;;;;;5051816;28;20206;-79
2023/06/20 12:37:41;;;;;;;6.07;5.53;;;27.40;99.90;;;;;;5052435;28;20206;-79
2023/06/20 12:40:13;;;;;;;5.55;5.10;;;27.80;99.90;;;;;;5052993;28;20229;-78
2023/06/20 12:42:39;;;;;;;5.53;5.03;;;28.10;99.90;;;;;;5043858;28;20269;-79